Terminal Aerodrome Forecast
Issued by NWS Wilmington, OH

Home | Current Version | Previous Version | Text Only | Print | Product List | Glossary On
Versions: 1 2 3 4 5 6 7 8 9 10 11 12 13 14 15 16 17 18 19 20 21 22 23 24 25 26 27 28 29 30 31 32 33 34 35 36 37 38 39 40 41 42 43 44 45 46 47 48 49 50
000
FTUS41 KILN 170250 AAA
TAFCVG
TAF AMD
KCVG 170250Z 1703/1806 20007KT P6SM -SHRA SCT040 BKN090
      TEMPO 1703/1705 5SM TSRA BKN040CB
     FM170900 22004KT 5SM BR BKN150
     FM171200 22006KT P6SM BKN200
     FM171800 22006KT P6SM VCTS BKN050CB BKN100=

USA.gov is the U.S. government's official web portal to all federal, state and local government web resources and services.